Map

Track Data

SID SEASON NUMBER BASIN SUBBASIN NAME ISO_TIME NATURE LAT LON WMO_WIND WMO_PRES WMO_AGENCY TRACK_TYPE DIST2LAND LANDFALL IFLAG USA_AGENCY USA_ATCF_ID USA_LAT USA_LON USA_RECORD USA_STATUS USA_WIND USA_PRES USA_SSHS USA_R34_NE USA_R34_SE USA_R34_SW USA_R34_NW USA_R50_NE USA_R50_SE USA_R50_SW USA_R50_NW USA_R64_NE USA_R64_SE USA_R64_SW USA_R64_NW USA_POCI USA_ROCI USA_RMW USA_EYE TOKYO_LAT TOKYO_LON TOKYO_GRADE TOKYO_WIND TOKYO_PRES TOKYO_R50_DIR TOKYO_R50_LONG TOKYO_R50_SHORT TOKYO_R30_DIR TOKYO_R30_LONG TOKYO_R30_SHORT TOKYO_LAND CMA_LAT CMA_LON CMA_CAT CMA_WIND CMA_PRES HKO_LAT HKO_LON HKO_CAT HKO_WIND HKO_PRES NEWDELHI_LAT NEWDELHI_LON NEWDELHI_GRADE NEWDELHI_WIND NEWDELHI_PRES NEWDELHI_CI NEWDELHI_DP NEWDELHI_POCI REUNION_LAT REUNION_LON REUNION_TYPE REUNION_WIND REUNION_PRES REUNION_TNUM REUNION_CI REUNION_RMW REUNION_R34_NE REUNION_R34_SE REUNION_R34_SW REUNION_R34_NW REUNION_R50_NE REUNION_R50_SE REUNION_R50_SW REUNION_R50_NW REUNION_R64_NE REUNION_R64_SE REUNION_R64_SW REUNION_R64_NW BOM_LAT BOM_LON BOM_TYPE BOM_WIND BOM_PRES BOM_TNUM BOM_CI BOM_RMW BOM_R34_NE BOM_R34_SE BOM_R34_SW BOM_R34_NW BOM_R50_NE BOM_R50_SE BOM_R50_SW BOM_R50_NW BOM_R64_NE BOM_R64_SE BOM_R64_SW BOM_R64_NW BOM_ROCI BOM_POCI BOM_EYE BOM_POS_METHOD BOM_PRES_METHOD NADI_LAT NADI_LON NADI_CAT NADI_WIND NADI_PRES WELLINGTON_LAT WELLINGTON_LON WELLINGTON_WIND WELLINGTON_PRES DS824_LAT DS824_LON DS824_STAGE DS824_WIND DS824_PRES TD9636_LAT TD9636_LON TD9636_STAGE TD9636_WIND TD9636_PRES TD9635_LAT TD9635_LON TD9635_WIND TD9635_PRES TD9635_ROCI NEUMANN_LAT NEUMANN_LON NEUMANN_CLASS NEUMANN_WIND NEUMANN_PRES MLC_LAT MLC_LON MLC_CLASS MLC_WIND MLC_PRES USA_GUST BOM_GUST BOM_GUST_PER REUNION_GUST REUNION_GUST_PER USA_SEAHGT USA_SEARAD_NE USA_SEARAD_SE USA_SEARAD_SW USA_SEARAD_NW STORM_SPEED STORM_DIR
1991168N11265 1991 31 EP MM CARLOS 1991-06-16 12:00:00 TS 11.4000 -95.4000 30 1008 hurdat_epa main 487 454 O_____________ hurdat_epa EP031991 11.4000 -95.4000 TD 30 1008 -1 11 299
1991168N11265 1991 31 EP MM CARLOS 1991-06-16 15:00:00 TS 11.6602 -95.8873 main 443 414 P_____________ EP031991 11.6602 -95.8873 TD 30 1007 -1 11 297
1991168N11265 1991 31 EP MM CARLOS 1991-06-16 18:00:00 TS 11.9000 -96.4000 30 1006 hurdat_epa main 414 392 O_____________ hurdat_epa EP031991 11.9000 -96.4000 TD 30 1006 -1 11 293
1991168N11265 1991 31 EP MM CARLOS 1991-06-16 21:00:00 TS 12.1073 -96.9627 main 394 379 P_____________ EP031991 12.1073 -96.9627 TD 32 1005 -1 12 289
1991168N11265 1991 31 EP MM CARLOS 1991-06-17 00:00:00 TS 12.3000 -97.6000 35 1005 hurdat_epa main 384 380 O_____________ hurdat_epa EP031991 12.3000 -97.6000 TS 35 1005 0 14 287
1991168N11265 1991 31 EP MM CARLOS 1991-06-17 03:00:00 TS 12.5151 -98.3424 main 392 387 P_____________ EP031991 12.5151 -98.3424 TS 35 1003 0 15 285
1991168N11265 1991 31 EP MM CARLOS 1991-06-17 06:00:00 TS 12.7000 -99.1000 35 1002 hurdat_epa main 395 393 O_____________ hurdat_epa EP031991 12.7000 -99.1000 TS 35 1002 0 14 283
1991168N11265 1991 31 EP MM CARLOS 1991-06-17 09:00:00 TS 12.8298 -99.7801 main 412 405 P_____________ EP031991 12.8298 -99.7801 TS 40 1001 0 13 279
1991168N11265 1991 31 EP MM CARLOS 1991-06-17 12:00:00 TS 12.9000 -100.400 45 1000 hurdat_epa main 427 427 O_____________ hurdat_epa EP031991 12.9000 -100.400 TS 45 1000 0 12 273
1991168N11265 1991 31 EP MM CARLOS 1991-06-17 15:00:00 TS 12.8998 -100.973 main 447 447 P_____________ EP031991 12.8998 -100.973 TS 47 999 0 11 270
1991168N11265 1991 31 EP MM CARLOS 1991-06-17 18:00:00 TS 12.9000 -101.500 50 999 hurdat_epa main 467 467 O_____________ hurdat_epa EP031991 12.9000 -101.500 TS 50 999 0 10 275
1991168N11265 1991 31 EP MM CARLOS 1991-06-17 21:00:00 TS 12.9923 -102.000 main 482 482 P_____________ EP031991 12.9923 -102.000 TS 52 998 0 10 282
1991168N11265 1991 31 EP MM CARLOS 1991-06-18 00:00:00 TS 13.1000 -102.500 55 998 hurdat_epa main 493 493 O_____________ hurdat_epa EP031991 13.1000 -102.500 TS 55 998 0 10 279
1991168N11265 1991 31 EP MM CARLOS 1991-06-18 03:00:00 TS 13.1500 -103.050 main 516 506 P_____________ EP031991 13.1500 -103.050 TS 55 996 0 11 275
1991168N11265 1991 31 EP MM CARLOS 1991-06-18 06:00:00 TS 13.2000 -103.600 55 994 hurdat_epa main 531 531 O_____________ hurdat_epa EP031991 13.2000 -103.600 TS 55 994 0 11 279
1991168N11265 1991 31 EP MM CARLOS 1991-06-18 09:00:00 TS 13.3074 -104.122 main 549 546 P_____________ EP031991 13.3074 -104.122 TS 57 993 0 10 282
1991168N11265 1991 31 EP MM CARLOS 1991-06-18 12:00:00 TS 13.4000 -104.600 60 992 hurdat_epa main 556 556 O_____________ hurdat_epa EP031991 13.4000 -104.600 TS 60 992 0 9 275
1991168N11265 1991 31 EP MM CARLOS 1991-06-18 15:00:00 TS 13.3774 -105.023 main 570 570 P_____________ EP031991 13.3774 -105.023 TS 62 991 0 8 270
1991168N11265 1991 31 EP MM CARLOS 1991-06-18 18:00:00 TS 13.4000 -105.400 65 990 hurdat_epa main 584 576 O_____________ hurdat_epa EP031991 13.4000 -105.400 HU 65 990 1 8 290
1991168N11265 1991 31 EP MM CARLOS 1991-06-18 21:00:00 TS 13.6349 -105.757 main 580 560 P_____________ EP031991 13.6349 -105.757 HU 65 989 1 8 306
1991168N11265 1991 31 EP MM CARLOS 1991-06-19 00:00:00 TS 13.9000 -106.100 65 989 hurdat_epa main 565 561 O_____________ hurdat_epa EP031991 13.9000 -106.100 HU 65 989 1 8 301
1991168N11265 1991 31 EP MM CARLOS 1991-06-19 03:00:00 TS 14.0375 -106.458 main 578 568 P_____________ EP031991 14.0375 -106.458 HU 65 988 1 7 286
1991168N11265 1991 31 EP MM CARLOS 1991-06-19 06:00:00 TS 14.1000 -106.800 65 988 hurdat_epa main 587 587 O_____________ hurdat_epa EP031991 14.1000 -106.800 HU 65 988 1 6 277
1991168N11265 1991 31 EP MM CARLOS 1991-06-19 09:00:00 TS 14.1149 -107.108 main 607 607 P_____________ EP031991 14.1149 -107.108 HU 65 987 1 6 270
1991168N11265 1991 31 EP MM CARLOS 1991-06-19 12:00:00 TS 14.1000 -107.400 65 987 hurdat_epa main 628 628 O_____________ hurdat_epa EP031991 14.1000 -107.400 HU 65 987 1 6 269
1991168N11265 1991 31 EP MM CARLOS 1991-06-19 15:00:00 TS 14.1000 -107.700 main 648 648 P_____________ EP031991 14.1000 -107.700 HU 65 987 1 6 270
1991168N11265 1991 31 EP MM CARLOS 1991-06-19 18:00:00 TS 14.1000 -108.000 65 987 hurdat_epa main 664 664 O_____________ hurdat_epa EP031991 14.1000 -108.000 HU 65 987 1 6 271
1991168N11265 1991 31 EP MM CARLOS 1991-06-19 21:00:00 TS 14.1074 -108.285 main 681 681 P_____________ EP031991 14.1074 -108.285 HU 65 987 1 6 270
1991168N11265 1991 31 EP MM CARLOS 1991-06-20 00:00:00 TS 14.1000 -108.600 65 987 hurdat_epa main 699 699 O_____________ hurdat_epa EP031991 14.1000 -108.600 HU 65 987 1 7 266
1991168N11265 1991 31 EP MM CARLOS 1991-06-20 03:00:00 TS 14.0575 -108.985 main 725 725 P_____________ EP031991 14.0575 -108.985 HU 65 987 1 8 263
1991168N11265 1991 31 EP MM CARLOS 1991-06-20 06:00:00 TS 14.0000 -109.400 65 987 hurdat_epa main 760 760 O_____________ hurdat_epa EP031991 14.0000 -109.400 HU 65 987 1 8 263
1991168N11265 1991 31 EP MM CARLOS 1991-06-20 09:00:00 TS 13.9649 -109.800 main 788 788 P_____________ EP031991 13.9649 -109.800 HU 65 987 1 8 263
1991168N11265 1991 31 EP MM CARLOS 1991-06-20 12:00:00 TS 13.9000 -110.200 65 987 hurdat_epa main 826 826 O_____________ hurdat_epa EP031991 13.9000 -110.200 HU 65 987 1 8 255
1991168N11265 1991 31 EP MM CARLOS 1991-06-20 15:00:00 TS 13.7574 -110.600 main 864 864 P_____________ EP031991 13.7574 -110.600 HU 65 988 1 8 249
1991168N11265 1991 31 EP MM CARLOS 1991-06-20 18:00:00 TS 13.6000 -111.000 65 990 hurdat_epa main 910 910 O_____________ hurdat_epa EP031991 13.6000 -111.000 HU 65 990 1 8 252
1991168N11265 1991 31 EP MM CARLOS 1991-06-20 21:00:00 TS 13.5000 -111.407 main 949 949 P_____________ EP031991 13.5000 -111.407 HU 62 991 0 8 256
1991168N11265 1991 31 EP MM CARLOS 1991-06-21 00:00:00 TS 13.4000 -111.800 60 992 hurdat_epa main 988 988 O_____________ hurdat_epa EP031991 13.4000 -111.800 TS 60 992 0 8 251
1991168N11265 1991 31 EP MM CARLOS 1991-06-21 03:00:00 TS 13.2574 -112.150 main 1018 1018 P_____________ EP031991 13.2574 -112.150 TS 60 992 0 7 246
1991168N11265 1991 31 EP MM CARLOS 1991-06-21 06:00:00 TS 13.1000 -112.500 60 993 hurdat_epa main 1065 1065 O_____________ hurdat_epa EP031991 13.1000 -112.500 TS 60 993 0 8 246
1991168N11265 1991 31 EP MM CARLOS 1991-06-21 09:00:00 TS 12.9424 -112.885 main 1111 1111 P_____________ EP031991 12.9424 -112.885 TS 60 992 0 8 249
1991168N11265 1991 31 EP MM CARLOS 1991-06-21 12:00:00 TS 12.8000 -113.300 60 992 hurdat_epa main 1151 1151 O_____________ hurdat_epa EP031991 12.8000 -113.300 TS 60 992 0 9 253
1991168N11265 1991 31 EP MM CARLOS 1991-06-21 15:00:00 TS 12.6850 -113.742 main 1190 1190 P_____________ EP031991 12.6850 -113.742 TS 62 990 0 9 257
1991168N11265 1991 31 EP MM CARLOS 1991-06-21 18:00:00 TS 12.6000 -114.200 65 988 hurdat_epa main 1235 1235 O_____________ hurdat_epa EP031991 12.6000 -114.200 HU 65 988 1 9 261
1991168N11265 1991 31 EP MM CARLOS 1991-06-21 21:00:00 TS 12.5424 -114.642 main 1261 1261 P_____________ EP031991 12.5424 -114.642 HU 70 983 1 9 264
1991168N11265 1991 31 EP MM CARLOS 1991-06-22 00:00:00 TS 12.5000 -115.100 75 979 hurdat_epa main 1282 1282 O_____________ hurdat_epa EP031991 12.5000 -115.100 HU 75 979 1 9 263
1991168N11265 1991 31 EP MM CARLOS 1991-06-22 03:00:00 TS 12.4349 -115.585 main 1315 1315 P_____________ EP031991 12.4349 -115.585 HU 77 977 1 10 264
1991168N11265 1991 31 EP MM CARLOS 1991-06-22 06:00:00 TS 12.4000 -116.100 80 975 hurdat_epa main 1340 1340 O_____________ hurdat_epa EP031991 12.4000 -116.100 HU 80 975 1 10 270
1991168N11265 1991 31 EP MM CARLOS 1991-06-22 09:00:00 TS 12.4273 -116.628 main 1366 1366 P_____________ EP031991 12.4273 -116.628 HU 85 972 2 11 275
1991168N11265 1991 31 EP MM CARLOS 1991-06-22 12:00:00 TS 12.5000 -117.200 90 970 hurdat_epa main 1390 1390 O_____________ hurdat_epa EP031991 12.5000 -117.200 HU 90 970 2 12 278
1991168N11265 1991 31 EP MM CARLOS 1991-06-22 15:00:00 TS 12.5848 -117.820 main 1417 1417 P_____________ EP031991 12.5848 -117.820 HU 92 967 2 13 279
1991168N11265 1991 31 EP MM CARLOS 1991-06-22 18:00:00 TS 12.7000 -118.500 95 965 hurdat_epa main 1452 1452 O_____________ hurdat_epa EP031991 12.7000 -118.500 HU 95 965 2 14 280
1991168N11265 1991 31 EP MM CARLOS 1991-06-22 21:00:00 TS 12.8349 -119.235 main 1490 1488 P_____________ EP031991 12.8349 -119.235 HU 97 964 3 15 282
1991168N11265 1991 31 EP MM CARLOS 1991-06-23 00:00:00 TS 13.0000 -120.000 100 963 hurdat_epa main 1530 1530 O_____________ hurdat_epa EP031991 13.0000 -120.000 HU 100 963 3 15 284
1991168N11265 1991 31 EP MM CARLOS 1991-06-23 03:00:00 TS 13.1923 -120.750 main 1573 1573 P_____________ EP031991 13.1923 -120.750 HU 100 961 3 15 285
1991168N11265 1991 31 EP MM CARLOS 1991-06-23 06:00:00 TS 13.4000 -121.500 100 960 hurdat_epa main 1602 1602 O_____________ hurdat_epa EP031991 13.4000 -121.500 HU 100 960 3 15 285
1991168N11265 1991 31 EP MM CARLOS 1991-06-23 09:00:00 TS 13.5923 -122.258 main 1638 1638 P_____________ EP031991 13.5923 -122.258 HU 100 959 3 15 285
1991168N11265 1991 31 EP MM CARLOS 1991-06-23 12:00:00 TS 13.8000 -123.000 100 959 hurdat_epa main 1670 1670 O_____________ hurdat_epa EP031991 13.8000 -123.000 HU 100 959 3 15 288
1991168N11265 1991 31 EP MM CARLOS 1991-06-23 15:00:00 TS 14.0498 -123.715 main 1704 1704 P_____________ EP031991 14.0498 -123.715 HU 100 958 3 15 290
1991168N11265 1991 31 EP MM CARLOS 1991-06-23 18:00:00 TS 14.3000 -124.400 100 958 hurdat_epa main 1733 1733 O_____________ hurdat_epa EP031991 14.3000 -124.400 HU 100 958 3 14 289
1991168N11265 1991 31 EP MM CARLOS 1991-06-23 21:00:00 TS 14.4923 -125.058 main 1773 1773 P_____________ EP031991 14.4923 -125.058 HU 100 957 3 13 288
1991168N11265 1991 31 EP MM CARLOS 1991-06-24 00:00:00 TS 14.7000 -125.700 100 957 hurdat_epa main 1806 1806 O_____________ hurdat_epa EP031991 14.7000 -125.700 HU 100 957 3 14 292
1991168N11265 1991 31 EP MM CARLOS 1991-06-24 03:00:00 TS 14.9999 -126.365 main 1842 1841 P_____________ EP031991 14.9999 -126.365 HU 102 956 3 14 296
1991168N11265 1991 31 EP MM CARLOS 1991-06-24 06:00:00 TS 15.3000 -127.000 105 955 hurdat_epa main 1858 1856 O_____________ hurdat_epa EP031991 15.3000 -127.000 HU 105 955 3 13 294
1991168N11265 1991 31 EP MM CARLOS 1991-06-24 09:00:00 TS 15.5148 -127.573 main 1883 1881 P_____________ EP031991 15.5148 -127.573 HU 102 957 3 11 291
1991168N11265 1991 31 EP MM CARLOS 1991-06-24 12:00:00 TS 15.7000 -128.100 100 960 hurdat_epa main 1902 1901 O_____________ hurdat_epa EP031991 15.7000 -128.100 HU 100 960 3 11 292
1991168N11265 1991 31 EP MM CARLOS 1991-06-24 15:00:00 TS 15.9149 -128.615 main 1923 1922 P_____________ EP031991 15.9149 -128.615 HU 100 962 3 10 293
1991168N11265 1991 31 EP MM CARLOS 1991-06-24 18:00:00 TS 16.1000 -129.100 100 964 hurdat_epa main 1945 1945 O_____________ hurdat_epa EP031991 16.1000 -129.100 HU 100 964 3 10 288
1991168N11265 1991 31 EP MM CARLOS 1991-06-24 21:00:00 TS 16.2150 -129.580 main 1976 1976 P_____________ EP031991 16.2150 -129.580 HU 100 966 3 9 283
1991168N11265 1991 31 EP MM CARLOS 1991-06-25 00:00:00 TS 16.3000 -130.000 100 968 hurdat_epa main 2000 2000 O_____________ hurdat_epa EP031991 16.3000 -130.000 HU 100 968 3 7 285
1991168N11265 1991 31 EP MM CARLOS 1991-06-25 03:00:00 TS 16.4073 -130.323 main 2016 2016 P_____________ EP031991 16.4073 -130.323 HU 95 970 2 6 289
1991168N11265 1991 31 EP MM CARLOS 1991-06-25 06:00:00 TS 16.5000 -130.600 90 972 hurdat_epa main 2033 2033 O_____________ hurdat_epa EP031991 16.5000 -130.600 HU 90 972 2 6 285
1991168N11265 1991 31 EP MM CARLOS 1991-06-25 09:00:00 TS 16.5575 -130.915 main 2050 2050 P_____________ EP031991 16.5575 -130.915 HU 87 976 2 6 280
1991168N11265 1991 31 EP MM CARLOS 1991-06-25 12:00:00 TS 16.6000 -131.200 85 980 hurdat_epa main 2075 2075 O_____________ hurdat_epa EP031991 16.6000 -131.200 HU 85 980 2 5 282
1991168N11265 1991 31 EP MM CARLOS 1991-06-25 15:00:00 TS 16.6574 -131.415 main 2084 2084 P_____________ EP031991 16.6574 -131.415 HU 80 982 1 4 285
1991168N11265 1991 31 EP MM CARLOS 1991-06-25 18:00:00 TS 16.7000 -131.600 75 984 hurdat_epa main 2101 2101 O_____________ hurdat_epa EP031991 16.7000 -131.600 HU 75 984 1 4 278
1991168N11265 1991 31 EP MM CARLOS 1991-06-25 21:00:00 TS 16.7075 -131.793 main 2117 2117 P_____________ EP031991 16.7075 -131.793 HU 70 986 1 4 270
1991168N11265 1991 31 EP MM CARLOS 1991-06-26 00:00:00 TS 16.7000 -132.000 65 988 hurdat_epa main 2134 2134 O_____________ hurdat_epa EP031991 16.7000 -132.000 HU 65 988 1 4 269
1991168N11265 1991 31 EP MM CARLOS 1991-06-26 03:00:00 TS 16.7000 -132.235 main 2151 2151 P_____________ EP031991 16.7000 -132.235 HU 60 991 0 5 270
1991168N11265 1991 31 EP MM CARLOS 1991-06-26 06:00:00 TS 16.7000 -132.500 55 995 hurdat_epa main 2176 2176 O_____________ hurdat_epa EP031991 16.7000 -132.500 TS 55 995 0 5 269
1991168N11265 1991 31 EP MM CARLOS 1991-06-26 09:00:00 TS 16.6925 -132.793 main 2201 2201 P_____________ EP031991 16.6925 -132.793 TS 50 997 0 6 270
1991168N11265 1991 31 EP MM CARLOS 1991-06-26 12:00:00 TS 16.7000 -133.100 45 1000 hurdat_epa main 2227 2227 O_____________ hurdat_epa EP031991 16.7000 -133.100 TS 45 1000 0 6 276
1991168N11265 1991 31 EP MM CARLOS 1991-06-26 15:00:00 TS 16.7499 -133.392 main 2253 2246 P_____________ EP031991 16.7499 -133.392 TS 40 1002 0 6 280
1991168N11265 1991 31 EP MM CARLOS 1991-06-26 18:00:00 TS 16.8000 -133.700 35 1005 hurdat_epa main 2248 2217 O_____________ hurdat_epa EP031991 16.8000 -133.700 TS 35 1005 0 6 275
1991168N11265 1991 31 EP MM CARLOS 1991-06-26 21:00:00 TS 16.8075 -134.050 main 2206 2175 P_____________ EP031991 16.8075 -134.050 TS 32 1007 -1 7 270
1991168N11265 1991 31 EP MM CARLOS 1991-06-27 00:00:00 TS 16.8000 -134.400 30 1009 hurdat_epa main 2175 2144 O_____________ hurdat_epa EP031991 16.8000 -134.400 TD 30 1009 -1 6 270
1991168N11265 1991 31 EP MM CARLOS 1991-06-27 03:00:00 TS 16.8075 -134.722 main 2144 2112 P_____________ EP031991 16.8075 -134.722 TD 27 1009 -1 6 270
1991168N11265 1991 31 EP MM CARLOS 1991-06-27 06:00:00 TS 16.8000 -135.000 25 1010 hurdat_epa main 2112 2091 O_____________ hurdat_epa EP031991 16.8000 -135.000 TD 25 1010 -1 5 264
1991168N11265 1991 31 EP MM CARLOS 1991-06-27 09:00:00 TS 16.7600 -135.218 main 2091 2073 P_____________ EP031991 16.7600 -135.218 TD 25 1010 -1 4 255
1991168N11265 1991 31 EP MM CARLOS 1991-06-27 12:00:00 TS 16.7000 -135.400 25 1011 hurdat_epa main 2073 O_____________ hurdat_epa EP031991 16.7000 -135.400 TD 25 1011 -1 4 251

About IBTrACS Database

This database is a web-friendly format of International Best Track Archive for Climate Stewardship (IBTrACS), a global best track data archive curated by NOAA dating back to 1842.

Updated: 2021-12-03